Terminal Aerodrome Forecast
Issued by NWS

Home | Current Version | Previous Version | Text Only | Print | Product List | Glossary On
Versions: 1 2 3 4 5 6 7 8 9 10 11 12 13 14 15 16 17 18 19 20 21 22 23 24 25 26 27 28 29
485
FTUS46 KLOX 031124
TAFLAX
TAF
KLAX 031124Z 0312/0418 02006KT P6SM SKC WS010/04030KT
     FM031700 VRB03KT P6SM SKC
     FM032100 26012KT P6SM SKC
     FM040400 VRB03KT P6SM SKC=

USA.gov is the U.S. government's official web portal to all federal, state and local government web resources and services.